sensor_id;sensor_type;location;lat;lon;timestamp;temperature;humidity
59301;DHT22;45073;52.740;6.784;2022-07-17T00:00:39;12.60;99.90
59301;DHT22;45073;52.740;6.784;2022-07-17T00:03:15;12.60;99.90
59301;DHT22;45073;52.740;6.784;2022-07-17T00:05:42;12.60;99.90
59301;DHT22;45073;52.740;6.784;2022-07-17T00:08:09;12.50;99.90
59301;DHT22;45073;52.740;6.784;2022-07-17T00:10:35;12.40;99.90
59301;DHT22;45073;52.740;6.784;2022-07-17T00:13:01;12.40;99.90
59301;DHT22;45073;52.740;6.784;2022-07-17T00:15:27;12.30;99.90
59301;DHT22;45073;52.740;6.784;2022-07-17T00:17:53;12.30;99.90
59301;DHT22;45073;52.740;6.784;2022-07-17T00:20:19;12.30;99.90
59301;DHT22;45073;52.740;6.784;2022-07-17T00:22:45;12.30;99.90
59301;DHT22;45073;52.740;6.784;2022-07-17T00:25:12;12.30;99.90
59301;DHT22;45073;52.740;6.784;2022-07-17T00:27:38;12.20;99.90
59301;DHT22;45073;52.740;6.784;2022-07-17T00:30:05;12.10;99.90
59301;DHT22;45073;52.740;6.784;2022-07-17T00:32:30;12.10;99.90
59301;DHT22;45073;52.740;6.784;2022-07-17T00:34:56;12.20;99.90
59301;DHT22;45073;52.740;6.784;2022-07-17T00:37:22;12.20;99.90
59301;DHT22;45073;52.740;6.784;2022-07-17T00:39:48;12.20;99.90
59301;DHT22;45073;52.740;6.784;2022-07-17T00:42:15;12.20;99.90
59301;DHT22;45073;52.740;6.784;2022-07-17T00:44:41;12.00;99.90
59301;DHT22;45073;52.740;6.784;2022-07-17T00:47:19;12.00;99.90
59301;DHT22;45073;52.740;6.784;2022-07-17T00:49:47;12.10;99.90
59301;DHT22;45073;52.740;6.784;2022-07-17T00:52:14;12.00;99.90
59301;DHT22;45073;52.740;6.784;2022-07-17T00:54:42;12.00;99.90
59301;DHT22;45073;52.740;6.784;2022-07-17T00:57:10;11.90;99.90
59301;DHT22;45073;52.740;6.784;2022-07-17T00:59:37;11.80;99.90
59301;DHT22;45073;52.740;6.784;2022-07-17T01:02:10;11.80;99.90
59301;DHT22;45073;52.740;6.784;2022-07-17T01:04:37;11.80;99.90
59301;DHT22;45073;52.740;6.784;2022-07-17T01:07:04;11.80;99.90
59301;DHT22;45073;52.740;6.784;2022-07-17T01:09:31;11.70;99.90
59301;DHT22;45073;52.740;6.784;2022-07-17T01:11:57;11.60;99.90
59301;DHT22;45073;52.740;6.784;2022-07-17T01:14:24;11.60;99.90
59301;DHT22;45073;52.740;6.784;2022-07-17T01:16:51;11.60;99.90
59301;DHT22;45073;52.740;6.784;2022-07-17T01:19:16;11.50;99.90
59301;DHT22;45073;52.740;6.784;2022-07-17T01:21:44;11.50;99.90
59301;DHT22;45073;52.740;6.784;2022-07-17T01:24:10;11.50;99.90
59301;DHT22;45073;52.740;6.784;2022-07-17T01:26:36;11.50;99.90
59301;DHT22;45073;52.740;6.784;2022-07-17T01:29:02;11.60;99.90
59301;DHT22;45073;52.740;6.784;2022-07-17T01:31:28;11.50;99.90
59301;DHT22;45073;52.740;6.784;2022-07-17T01:33:54;11.50;99.90
59301;DHT22;45073;52.740;6.784;2022-07-17T01:36:22;11.40;99.90
59301;DHT22;45073;52.740;6.784;2022-07-17T01:38:48;11.30;99.90
59301;DHT22;45073;52.740;6.784;2022-07-17T01:41:14;11.20;99.90
59301;DHT22;45073;52.740;6.784;2022-07-17T01:43:40;11.20;99.90
59301;DHT22;45073;52.740;6.784;2022-07-17T01:46:05;11.10;99.90
59301;DHT22;45073;52.740;6.784;2022-07-17T01:48:31;11.10;99.90
59301;DHT22;45073;52.740;6.784;2022-07-17T01:50:56;11.00;99.90
59301;DHT22;45073;52.740;6.784;2022-07-17T01:53:22;11.00;99.90
59301;DHT22;45073;52.740;6.784;2022-07-17T01:55:48;11.00;99.90
59301;DHT22;45073;52.740;6.784;2022-07-17T01:58:14;11.00;99.90
59301;DHT22;45073;52.740;6.784;2022-07-17T02:00:40;11.00;99.90
59301;DHT22;45073;52.740;6.784;2022-07-17T02:03:05;10.90;99.90
59301;DHT22;45073;52.740;6.784;2022-07-17T02:05:31;10.90;99.90
59301;DHT22;45073;52.740;6.784;2022-07-17T02:07:56;10.90;99.90
59301;DHT22;45073;52.740;6.784;2022-07-17T02:10:23;10.90;99.90
59301;DHT22;45073;52.740;6.784;2022-07-17T02:12:48;10.90;99.90
59301;DHT22;45073;52.740;6.784;2022-07-17T02:15:14;10.90;99.90
59301;DHT22;45073;52.740;6.784;2022-07-17T02:17:41;10.90;99.90
59301;DHT22;45073;52.740;6.784;2022-07-17T02:20:07;10.90;99.90
59301;DHT22;45073;52.740;6.784;2022-07-17T02:22:33;10.90;99.90
59301;DHT22;45073;52.740;6.784;2022-07-17T02:24:59;10.90;99.90
59301;DHT22;45073;52.740;6.784;2022-07-17T02:27:24;10.80;99.90
59301;DHT22;45073;52.740;6.784;2022-07-17T02:29:50;10.80;99.90
59301;DHT22;45073;52.740;6.784;2022-07-17T02:32:16;10.70;99.90
59301;DHT22;45073;52.740;6.784;2022-07-17T02:34:41;10.70;99.90
59301;DHT22;45073;52.740;6.784;2022-07-17T02:37:07;10.70;99.90
59301;DHT22;45073;52.740;6.784;2022-07-17T02:39:32;10.70;99.90
59301;DHT22;45073;52.740;6.784;2022-07-17T02:41:58;10.80;99.90
59301;DHT22;45073;52.740;6.784;2022-07-17T02:44:24;10.80;99.90
59301;DHT22;45073;52.740;6.784;2022-07-17T02:46:49;10.70;99.90
59301;DHT22;45073;52.740;6.784;2022-07-17T02:49:15;10.70;99.90
59301;DHT22;45073;52.740;6.784;2022-07-17T02:51:40;10.70;99.90
59301;DHT22;45073;52.740;6.784;2022-07-17T02:54:06;10.70;99.90
59301;DHT22;45073;52.740;6.784;2022-07-17T02:56:32;10.70;99.90
59301;DHT22;45073;52.740;6.784;2022-07-17T02:58:57;10.70;99.90
59301;DHT22;45073;52.740;6.784;2022-07-17T03:01:23;10.70;99.90
59301;DHT22;45073;52.740;6.784;2022-07-17T03:03:48;10.70;99.90
59301;DHT22;45073;52.740;6.784;2022-07-17T03:06:14;10.70;99.90
59301;DHT22;45073;52.740;6.784;2022-07-17T03:08:40;10.70;99.90
59301;DHT22;45073;52.740;6.784;2022-07-17T03:11:05;10.70;99.90
59301;DHT22;45073;52.740;6.784;2022-07-17T03:13:31;10.60;99.90
59301;DHT22;45073;52.740;6.784;2022-07-17T03:15:56;10.70;99.90
59301;DHT22;45073;52.740;6.784;2022-07-17T03:18:22;10.70;99.90
59301;DHT22;45073;52.740;6.784;2022-07-17T03:20:47;10.60;99.90
59301;DHT22;45073;52.740;6.784;2022-07-17T03:23:13;10.60;99.90
59301;DHT22;45073;52.740;6.784;2022-07-17T03:25:39;10.60;99.90
59301;DHT22;45073;52.740;6.784;2022-07-17T03:28:04;10.60;99.90
59301;DHT22;45073;52.740;6.784;2022-07-17T03:30:30;10.60;99.90
59301;DHT22;45073;52.740;6.784;2022-07-17T03:32:55;10.60;99.90
59301;DHT22;45073;52.740;6.784;2022-07-17T03:35:21;10.60;99.90
59301;DHT22;45073;52.740;6.784;2022-07-17T03:37:47;10.50;99.90
59301;DHT22;45073;52.740;6.784;2022-07-17T03:40:12;10.50;99.90
59301;DHT22;45073;52.740;6.784;2022-07-17T03:42:38;10.40;99.90
59301;DHT22;45073;52.740;6.784;2022-07-17T03:45:04;10.30;99.90
59301;DHT22;45073;52.740;6.784;2022-07-17T03:47:30;10.30;99.90
59301;DHT22;45073;52.740;6.784;2022-07-17T03:49:56;10.30;99.90
59301;DHT22;45073;52.740;6.784;2022-07-17T03:52:21;10.20;99.90
59301;DHT22;45073;52.740;6.784;2022-07-17T03:54:47;10.20;99.90
59301;DHT22;45073;52.740;6.784;2022-07-17T03:57:12;10.20;99.90
59301;DHT22;45073;52.740;6.784;2022-07-17T03:59:38;10.10;99.90
59301;DHT22;45073;52.740;6.784;2022-07-17T04:02:04;10.10;99.90
59301;DHT22;45073;52.740;6.784;2022-07-17T04:04:29;10.00;99.90
59301;DHT22;45073;52.740;6.784;2022-07-17T04:06:55;10.00;99.90
59301;DHT22;45073;52.740;6.784;2022-07-17T04:09:20;9.90;99.90
59301;DHT22;45073;52.740;6.784;2022-07-17T04:11:46;10.00;99.90
59301;DHT22;45073;52.740;6.784;2022-07-17T04:14:11;9.90;99.90
59301;DHT22;45073;52.740;6.784;2022-07-17T04:16:37;9.90;99.90
59301;DHT22;45073;52.740;6.784;2022-07-17T04:19:02;9.90;99.90
59301;DHT22;45073;52.740;6.784;2022-07-17T04:21:28;10.00;99.90
59301;DHT22;45073;52.740;6.784;2022-07-17T04:23:54;10.00;99.90
59301;DHT22;45073;52.740;6.784;2022-07-17T04:26:19;10.00;99.90
59301;DHT22;45073;52.740;6.784;2022-07-17T04:28:45;10.00;99.90
59301;DHT22;45073;52.740;6.784;2022-07-17T04:31:11;10.00;99.90
59301;DHT22;45073;52.740;6.784;2022-07-17T04:33:37;10.10;99.90
59301;DHT22;45073;52.740;6.784;2022-07-17T04:36:03;10.10;99.90
59301;DHT22;45073;52.740;6.784;2022-07-17T04:38:29;10.10;99.90
59301;DHT22;45073;52.740;6.784;2022-07-17T04:40:54;10.20;99.90
59301;DHT22;45073;52.740;6.784;2022-07-17T04:43:20;10.20;99.90
59301;DHT22;45073;52.740;6.784;2022-07-17T04:45:46;10.20;99.90
59301;DHT22;45073;52.740;6.784;2022-07-17T04:48:11;10.30;99.90
59301;DHT22;45073;52.740;6.784;2022-07-17T04:50:37;10.30;99.90
59301;DHT22;45073;52.740;6.784;2022-07-17T04:53:02;10.30;99.90
59301;DHT22;45073;52.740;6.784;2022-07-17T04:55:28;10.30;99.90
59301;DHT22;45073;52.740;6.784;2022-07-17T04:57:54;10.40;99.90
59301;DHT22;45073;52.740;6.784;2022-07-17T05:00:19;10.40;99.90
59301;DHT22;45073;52.740;6.784;2022-07-17T05:02:45;10.50;99.90
59301;DHT22;45073;52.740;6.784;2022-07-17T05:05:11;10.50;99.90
59301;DHT22;45073;52.740;6.784;2022-07-17T05:07:37;10.60;99.90
59301;DHT22;45073;52.740;6.784;2022-07-17T05:10:03;10.60;99.90
59301;DHT22;45073;52.740;6.784;2022-07-17T05:12:29;10.70;99.90
59301;DHT22;45073;52.740;6.784;2022-07-17T05:14:55;10.70;99.90
59301;DHT22;45073;52.740;6.784;2022-07-17T05:17:20;10.70;99.90
59301;DHT22;45073;52.740;6.784;2022-07-17T05:19:46;10.80;99.90
59301;DHT22;45073;52.740;6.784;2022-07-17T05:22:12;10.90;99.90
59301;DHT22;45073;52.740;6.784;2022-07-17T05:24:37;11.00;99.90
59301;DHT22;45073;52.740;6.784;2022-07-17T05:27:03;11.10;99.90
59301;DHT22;45073;52.740;6.784;2022-07-17T05:29:29;11.20;99.90
59301;DHT22;45073;52.740;6.784;2022-07-17T05:31:54;11.20;99.90
59301;DHT22;45073;52.740;6.784;2022-07-17T05:34:20;11.30;99.90
59301;DHT22;45073;52.740;6.784;2022-07-17T05:36:46;11.40;99.90
59301;DHT22;45073;52.740;6.784;2022-07-17T05:39:11;11.50;99.90
59301;DHT22;45073;52.740;6.784;2022-07-17T05:41:37;11.60;99.90
59301;DHT22;45073;52.740;6.784;2022-07-17T05:44:03;11.70;99.90
59301;DHT22;45073;52.740;6.784;2022-07-17T05:46:28;11.80;99.90
59301;DHT22;45073;52.740;6.784;2022-07-17T05:48:54;11.90;99.90
59301;DHT22;45073;52.740;6.784;2022-07-17T05:51:20;11.90;99.90
59301;DHT22;45073;52.740;6.784;2022-07-17T05:53:45;12.00;99.90
59301;DHT22;45073;52.740;6.784;2022-07-17T05:56:11;12.10;99.90
59301;DHT22;45073;52.740;6.784;2022-07-17T05:58:36;12.20;99.90
59301;DHT22;45073;52.740;6.784;2022-07-17T06:01:02;12.20;99.90
59301;DHT22;45073;52.740;6.784;2022-07-17T06:03:27;12.30;99.90
59301;DHT22;45073;52.740;6.784;2022-07-17T06:05:54;12.40;99.90
59301;DHT22;45073;52.740;6.784;2022-07-17T06:08:20;12.50;99.90
59301;DHT22;45073;52.740;6.784;2022-07-17T06:10:45;12.60;99.90
59301;DHT22;45073;52.740;6.784;2022-07-17T06:13:11;12.60;99.90
59301;DHT22;45073;52.740;6.784;2022-07-17T06:15:36;12.60;99.90
59301;DHT22;45073;52.740;6.784;2022-07-17T06:18:03;12.80;99.90
59301;DHT22;45073;52.740;6.784;2022-07-17T06:20:29;12.80;99.90
59301;DHT22;45073;52.740;6.784;2022-07-17T06:22:55;12.90;99.90
59301;DHT22;45073;52.740;6.784;2022-07-17T06:25:20;13.00;99.90
59301;DHT22;45073;52.740;6.784;2022-07-17T06:27:46;13.00;99.90
59301;DHT22;45073;52.740;6.784;2022-07-17T06:30:14;13.10;99.90
59301;DHT22;45073;52.740;6.784;2022-07-17T06:32:41;13.20;99.90
59301;DHT22;45073;52.740;6.784;2022-07-17T06:35:08;13.20;99.90
59301;DHT22;45073;52.740;6.784;2022-07-17T06:37:34;13.30;99.90
59301;DHT22;45073;52.740;6.784;2022-07-17T06:40:00;13.40;99.90
59301;DHT22;45073;52.740;6.784;2022-07-17T06:42:26;13.50;99.90
59301;DHT22;45073;52.740;6.784;2022-07-17T06:44:52;13.60;99.90
59301;DHT22;45073;52.740;6.784;2022-07-17T06:47:17;13.70;99.90
59301;DHT22;45073;52.740;6.784;2022-07-17T06:49:43;13.80;99.90
59301;DHT22;45073;52.740;6.784;2022-07-17T06:52:09;13.90;99.90
59301;DHT22;45073;52.740;6.784;2022-07-17T06:54:34;14.00;99.90
59301;DHT22;45073;52.740;6.784;2022-07-17T06:57:00;14.10;99.90
59301;DHT22;45073;52.740;6.784;2022-07-17T06:59:26;14.20;99.90
59301;DHT22;45073;52.740;6.784;2022-07-17T07:01:52;14.20;99.90
59301;DHT22;45073;52.740;6.784;2022-07-17T07:04:17;14.30;99.90
59301;DHT22;45073;52.740;6.784;2022-07-17T07:06:43;14.40;99.90
59301;DHT22;45073;52.740;6.784;2022-07-17T07:09:09;14.50;99.90
59301;DHT22;45073;52.740;6.784;2022-07-17T07:11:37;14.60;99.90
59301;DHT22;45073;52.740;6.784;2022-07-17T07:14:03;14.70;99.90
59301;DHT22;45073;52.740;6.784;2022-07-17T07:16:28;14.80;99.90
59301;DHT22;45073;52.740;6.784;2022-07-17T07:18:54;14.90;99.90
59301;DHT22;45073;52.740;6.784;2022-07-17T07:21:20;15.00;99.90
59301;DHT22;45073;52.740;6.784;2022-07-17T07:23:45;15.10;99.90
59301;DHT22;45073;52.740;6.784;2022-07-17T07:26:11;15.20;99.90
59301;DHT22;45073;52.740;6.784;2022-07-17T07:28:36;15.20;99.90
59301;DHT22;45073;52.740;6.784;2022-07-17T07:31:03;15.30;99.90
59301;DHT22;45073;52.740;6.784;2022-07-17T07:33:29;15.50;99.90
59301;DHT22;45073;52.740;6.784;2022-07-17T07:35:55;15.50;99.90
59301;DHT22;45073;52.740;6.784;2022-07-17T07:38:21;15.60;99.90
59301;DHT22;45073;52.740;6.784;2022-07-17T07:40:46;15.60;99.90
59301;DHT22;45073;52.740;6.784;2022-07-17T07:43:12;15.80;99.90
59301;DHT22;45073;52.740;6.784;2022-07-17T07:45:37;15.80;99.90
59301;DHT22;45073;52.740;6.784;2022-07-17T07:48:03;15.90;99.90
59301;DHT22;45073;52.740;6.784;2022-07-17T07:50:29;16.00;99.90
59301;DHT22;45073;52.740;6.784;2022-07-17T07:52:55;16.10;99.90
59301;DHT22;45073;52.740;6.784;2022-07-17T07:55:21;16.20;99.90
59301;DHT22;45073;52.740;6.784;2022-07-17T07:57:47;16.20;99.90
59301;DHT22;45073;52.740;6.784;2022-07-17T08:00:14;16.30;99.90
59301;DHT22;45073;52.740;6.784;2022-07-17T08:02:39;16.40;99.90
59301;DHT22;45073;52.740;6.784;2022-07-17T08:05:05;16.40;99.90
59301;DHT22;45073;52.740;6.784;2022-07-17T08:07:31;16.50;99.90
59301;DHT22;45073;52.740;6.784;2022-07-17T08:09:57;16.50;99.90
59301;DHT22;45073;52.740;6.784;2022-07-17T08:12:24;16.50;99.90
59301;DHT22;45073;52.740;6.784;2022-07-17T08:14:50;16.60;99.90
59301;DHT22;45073;52.740;6.784;2022-07-17T08:17:16;16.70;99.90
59301;DHT22;45073;52.740;6.784;2022-07-17T08:19:41;16.80;99.90
59301;DHT22;45073;52.740;6.784;2022-07-17T08:22:07;16.80;99.90
59301;DHT22;45073;52.740;6.784;2022-07-17T08:24:32;16.90;99.90
59301;DHT22;45073;52.740;6.784;2022-07-17T08:26:58;17.00;99.90
59301;DHT22;45073;52.740;6.784;2022-07-17T08:29:24;17.00;99.90
59301;DHT22;45073;52.740;6.784;2022-07-17T08:31:49;17.10;99.90
59301;DHT22;45073;52.740;6.784;2022-07-17T08:34:15;17.10;99.90
59301;DHT22;45073;52.740;6.784;2022-07-17T08:36:41;17.10;99.90
59301;DHT22;45073;52.740;6.784;2022-07-17T08:39:08;17.20;99.90
59301;DHT22;45073;52.740;6.784;2022-07-17T08:41:37;17.30;99.90
59301;DHT22;45073;52.740;6.784;2022-07-17T08:44:04;17.40;99.90
59301;DHT22;45073;52.740;6.784;2022-07-17T08:46:30;17.40;99.90
59301;DHT22;45073;52.740;6.784;2022-07-17T08:48:58;17.50;99.90
59301;DHT22;45073;52.740;6.784;2022-07-17T08:51:25;17.60;99.90
59301;DHT22;45073;52.740;6.784;2022-07-17T08:53:51;17.70;99.90
59301;DHT22;45073;52.740;6.784;2022-07-17T08:56:17;17.70;99.90
59301;DHT22;45073;52.740;6.784;2022-07-17T08:58:42;17.80;99.90
59301;DHT22;45073;52.740;6.784;2022-07-17T09:01:08;17.80;99.90
59301;DHT22;45073;52.740;6.784;2022-07-17T09:03:34;17.90;99.90
59301;DHT22;45073;52.740;6.784;2022-07-17T09:05:59;18.10;99.90
59301;DHT22;45073;52.740;6.784;2022-07-17T09:08:25;18.10;99.90
59301;DHT22;45073;52.740;6.784;2022-07-17T09:10:53;18.20;99.90
59301;DHT22;45073;52.740;6.784;2022-07-17T09:13:30;18.20;99.90
59301;DHT22;45073;52.740;6.784;2022-07-17T09:16:07;18.30;99.90
59301;DHT22;45073;52.740;6.784;2022-07-17T09:18:48;18.40;99.90
59301;DHT22;45073;52.740;6.784;2022-07-17T09:21:41;18.50;99.90
59301;DHT22;45073;52.740;6.784;2022-07-17T09:24:07;18.60;99.90
59301;DHT22;45073;52.740;6.784;2022-07-17T09:26:34;18.70;99.90
59301;DHT22;45073;52.740;6.784;2022-07-17T09:29:03;18.70;99.90
59301;DHT22;45073;52.740;6.784;2022-07-17T09:31:31;18.80;99.90
59301;DHT22;45073;52.740;6.784;2022-07-17T09:33:58;18.90;99.90
59301;DHT22;45073;52.740;6.784;2022-07-17T09:36:24;18.90;99.90
59301;DHT22;45073;52.740;6.784;2022-07-17T09:38:53;19.00;99.90
59301;DHT22;45073;52.740;6.784;2022-07-17T09:41:20;19.00;99.90
59301;DHT22;45073;52.740;6.784;2022-07-17T09:43:52;19.00;99.90
59301;DHT22;45073;52.740;6.784;2022-07-17T09:46:33;19.00;99.90
59301;DHT22;45073;52.740;6.784;2022-07-17T09:49:04;19.10;99.90
59301;DHT22;45073;52.740;6.784;2022-07-17T09:51:33;19.20;99.90
59301;DHT22;45073;52.740;6.784;2022-07-17T09:54:03;19.20;99.90
59301;DHT22;45073;52.740;6.784;2022-07-17T09:56:31;19.30;99.90
59301;DHT22;45073;52.740;6.784;2022-07-17T09:59:08;19.40;99.90
59301;DHT22;45073;52.740;6.784;2022-07-17T10:01:35;19.40;99.90
59301;DHT22;45073;52.740;6.784;2022-07-17T10:04:01;19.40;99.90
59301;DHT22;45073;52.740;6.784;2022-07-17T10:06:28;19.50;99.90
59301;DHT22;45073;52.740;6.784;2022-07-17T10:08:54;19.60;99.90
59301;DHT22;45073;52.740;6.784;2022-07-17T10:11:21;19.70;99.90
59301;DHT22;45073;52.740;6.784;2022-07-17T10:13:48;19.70;99.90
59301;DHT22;45073;52.740;6.784;2022-07-17T10:16:29;19.80;98.30
59301;DHT22;45073;52.740;6.784;2022-07-17T10:18:57;19.90;98.20
59301;DHT22;45073;52.740;6.784;2022-07-17T10:21:25;19.90;98.80
59301;DHT22;45073;52.740;6.784;2022-07-17T10:28:58;20.00;97.30
59301;DHT22;45073;52.740;6.784;2022-07-17T10:31:25;20.00;97.00
59301;DHT22;45073;52.740;6.784;2022-07-17T10:33:59;20.10;95.80
59301;DHT22;45073;52.740;6.784;2022-07-17T10:36:39;20.20;95.60
59301;DHT22;45073;52.740;6.784;2022-07-17T10:39:19;20.30;95.90
59301;DHT22;45073;52.740;6.784;2022-07-17T10:41:56;20.50;93.90
59301;DHT22;45073;52.740;6.784;2022-07-17T10:44:30;20.50;91.70
59301;DHT22;45073;52.740;6.784;2022-07-17T10:46:56;20.60;89.60
59301;DHT22;45073;52.740;6.784;2022-07-17T10:49:23;20.70;88.70
59301;DHT22;45073;52.740;6.784;2022-07-17T10:51:49;20.80;86.90
59301;DHT22;45073;52.740;6.784;2022-07-17T10:54:19;20.80;89.20
59301;DHT22;45073;52.740;6.784;2022-07-17T10:56:46;20.90;90.00
59301;DHT22;45073;52.740;6.784;2022-07-17T10:59:12;21.00;91.00
59301;DHT22;45073;52.740;6.784;2022-07-17T11:01:38;21.00;89.00
59301;DHT22;45073;52.740;6.784;2022-07-17T11:04:04;21.00;84.30
59301;DHT22;45073;52.740;6.784;2022-07-17T11:06:32;21.00;86.80
59301;DHT22;45073;52.740;6.784;2022-07-17T11:11:44;21.20;83.30
59301;DHT22;45073;52.740;6.784;2022-07-17T11:14:22;21.30;86.50
59301;DHT22;45073;52.740;6.784;2022-07-17T11:16:56;21.40;80.40
59301;DHT22;45073;52.740;6.784;2022-07-17T11:19:33;21.40;83.20
59301;DHT22;45073;52.740;6.784;2022-07-17T11:22:02;21.50;80.30
59301;DHT22;45073;52.740;6.784;2022-07-17T11:24:40;21.60;80.30
59301;DHT22;45073;52.740;6.784;2022-07-17T11:27:09;21.70;86.60
59301;DHT22;45073;52.740;6.784;2022-07-17T11:29:41;21.80;81.10
59301;DHT22;45073;52.740;6.784;2022-07-17T11:32:07;21.80;80.20
59301;DHT22;45073;52.740;6.784;2022-07-17T11:34:33;21.90;81.40
59301;DHT22;45073;52.740;6.784;2022-07-17T11:37:05;22.00;80.30
59301;DHT22;45073;52.740;6.784;2022-07-17T11:39:38;22.10;77.90
59301;DHT22;45073;52.740;6.784;2022-07-17T11:42:08;22.20;76.30
59301;DHT22;45073;52.740;6.784;2022-07-17T11:44:34;22.20;82.70
59301;DHT22;45073;52.740;6.784;2022-07-17T11:47:00;22.30;76.80
59301;DHT22;45073;52.740;6.784;2022-07-17T11:49:29;22.30;75.80
59301;DHT22;45073;52.740;6.784;2022-07-17T11:51:56;22.40;74.10
59301;DHT22;45073;52.740;6.784;2022-07-17T11:54:22;22.40;74.90
59301;DHT22;45073;52.740;6.784;2022-07-17T11:56:56;22.50;75.40
59301;DHT22;45073;52.740;6.784;2022-07-17T11:59:28;22.60;79.10
59301;DHT22;45073;52.740;6.784;2022-07-17T12:01:54;22.70;72.30
59301;DHT22;45073;52.740;6.784;2022-07-17T12:04:20;22.70;72.60
59301;DHT22;45073;52.740;6.784;2022-07-17T12:06:57;22.70;76.10
59301;DHT22;45073;52.740;6.784;2022-07-17T12:09:32;22.80;73.60
59301;DHT22;45073;52.740;6.784;2022-07-17T12:12:01;23.00;72.80
59301;DHT22;45073;52.740;6.784;2022-07-17T12:14:27;23.10;73.80
59301;DHT22;45073;52.740;6.784;2022-07-17T12:16:52;23.20;71.80
59301;DHT22;45073;52.740;6.784;2022-07-17T12:19:23;23.20;72.10
59301;DHT22;45073;52.740;6.784;2022-07-17T12:21:57;23.30;69.70
59301;DHT22;45073;52.740;6.784;2022-07-17T12:24:26;23.30;68.70
59301;DHT22;45073;52.740;6.784;2022-07-17T12:26:53;23.40;69.40
59301;DHT22;45073;52.740;6.784;2022-07-17T12:29:19;23.50;67.00
59301;DHT22;45073;52.740;6.784;2022-07-17T12:31:45;23.60;69.80
59301;DHT22;45073;52.740;6.784;2022-07-17T12:34:10;23.70;72.90
59301;DHT22;45073;52.740;6.784;2022-07-17T12:36:36;23.70;70.40
59301;DHT22;45073;52.740;6.784;2022-07-17T12:39:02;23.80;68.80
59301;DHT22;45073;52.740;6.784;2022-07-17T12:41:28;24.00;68.50
59301;DHT22;45073;52.740;6.784;2022-07-17T12:43:53;24.10;66.70
59301;DHT22;45073;52.740;6.784;2022-07-17T12:46:19;24.10;64.70
59301;DHT22;45073;52.740;6.784;2022-07-17T12:48:45;24.20;65.20
59301;DHT22;45073;52.740;6.784;2022-07-17T12:51:12;24.30;63.80
59301;DHT22;45073;52.740;6.784;2022-07-17T12:53:40;24.30;65.10
59301;DHT22;45073;52.740;6.784;2022-07-17T12:56:06;24.20;62.20
59301;DHT22;45073;52.740;6.784;2022-07-17T12:58:33;24.10;61.00
59301;DHT22;45073;52.740;6.784;2022-07-17T13:00:58;24.10;61.60
59301;DHT22;45073;52.740;6.784;2022-07-17T13:03:25;24.20;61.60
59301;DHT22;45073;52.740;6.784;2022-07-17T13:05:50;24.40;60.70
59301;DHT22;45073;52.740;6.784;2022-07-17T13:08:16;24.50;61.80
59301;DHT22;45073;52.740;6.784;2022-07-17T13:10:42;24.70;61.30
59301;DHT22;45073;52.740;6.784;2022-07-17T13:13:08;24.90;60.90
59301;DHT22;45073;52.740;6.784;2022-07-17T13:15:33;24.90;60.20
59301;DHT22;45073;52.740;6.784;2022-07-17T13:17:59;25.00;61.30
59301;DHT22;45073;52.740;6.784;2022-07-17T13:20:26;25.00;61.80
59301;DHT22;45073;52.740;6.784;2022-07-17T13:22:51;25.00;59.10
59301;DHT22;45073;52.740;6.784;2022-07-17T13:25:17;25.00;59.10
59301;DHT22;45073;52.740;6.784;2022-07-17T13:27:43;24.80;59.70
59301;DHT22;45073;52.740;6.784;2022-07-17T13:30:09;24.90;60.10
59301;DHT22;45073;52.740;6.784;2022-07-17T13:32:34;25.00;60.20
59301;DHT22;45073;52.740;6.784;2022-07-17T13:35:01;25.20;61.20
59301;DHT22;45073;52.740;6.784;2022-07-17T13:37:26;25.20;60.10
59301;DHT22;45073;52.740;6.784;2022-07-17T13:39:52;25.10;60.70
59301;DHT22;45073;52.740;6.784;2022-07-17T13:42:17;25.20;60.20
59301;DHT22;45073;52.740;6.784;2022-07-17T13:44:43;25.20;60.00
59301;DHT22;45073;52.740;6.784;2022-07-17T13:47:09;25.00;59.20
59301;DHT22;45073;52.740;6.784;2022-07-17T13:49:34;25.00;58.30
59301;DHT22;45073;52.740;6.784;2022-07-17T13:52:00;25.00;58.20
59301;DHT22;45073;52.740;6.784;2022-07-17T13:54:26;25.10;56.90
59301;DHT22;45073;52.740;6.784;2022-07-17T13:56:51;25.10;56.50
59301;DHT22;45073;52.740;6.784;2022-07-17T13:59:18;25.20;57.10
59301;DHT22;45073;52.740;6.784;2022-07-17T14:01:44;25.30;57.90
59301;DHT22;45073;52.740;6.784;2022-07-17T14:04:09;25.30;58.20
59301;DHT22;45073;52.740;6.784;2022-07-17T14:06:35;25.40;57.70
59301;DHT22;45073;52.740;6.784;2022-07-17T14:09:01;25.50;58.50
59301;DHT22;45073;52.740;6.784;2022-07-17T14:11:27;25.50;57.70
59301;DHT22;45073;52.740;6.784;2022-07-17T14:13:52;25.40;57.60
59301;DHT22;45073;52.740;6.784;2022-07-17T14:16:18;25.50;58.70
59301;DHT22;45073;52.740;6.784;2022-07-17T14:18:44;25.70;59.20
59301;DHT22;45073;52.740;6.784;2022-07-17T14:21:31;25.70;57.70
59301;DHT22;45073;52.740;6.784;2022-07-17T14:23:57;25.70;57.60
59301;DHT22;45073;52.740;6.784;2022-07-17T14:26:24;25.80;58.20
59301;DHT22;45073;52.740;6.784;2022-07-17T14:28:49;25.70;58.80
59301;DHT22;45073;52.740;6.784;2022-07-17T14:31:15;25.90;60.90
59301;DHT22;45073;52.740;6.784;2022-07-17T14:33:42;26.00;60.10
59301;DHT22;45073;52.740;6.784;2022-07-17T14:36:08;26.20;60.10
59301;DHT22;45073;52.740;6.784;2022-07-17T14:38:34;26.40;60.00
59301;DHT22;45073;52.740;6.784;2022-07-17T14:41:00;26.50;58.80
59301;DHT22;45073;52.740;6.784;2022-07-17T14:43:27;26.60;56.80
59301;DHT22;45073;52.740;6.784;2022-07-17T14:45:52;26.60;57.30
59301;DHT22;45073;52.740;6.784;2022-07-17T14:48:18;26.60;56.60
59301;DHT22;45073;52.740;6.784;2022-07-17T14:50:43;26.60;57.20
59301;DHT22;45073;52.740;6.784;2022-07-17T14:53:09;26.70;58.00
59301;DHT22;45073;52.740;6.784;2022-07-17T14:55:34;26.80;56.90
59301;DHT22;45073;52.740;6.784;2022-07-17T14:58:00;26.80;55.70
59301;DHT22;45073;52.740;6.784;2022-07-17T15:00:26;26.80;56.00
59301;DHT22;45073;52.740;6.784;2022-07-17T15:02:51;26.70;56.10
59301;DHT22;45073;52.740;6.784;2022-07-17T15:05:17;26.70;56.00
59301;DHT22;45073;52.740;6.784;2022-07-17T15:07:43;26.50;54.50
59301;DHT22;45073;52.740;6.784;2022-07-17T15:10:08;26.30;53.80
59301;DHT22;45073;52.740;6.784;2022-07-17T15:12:34;26.20;54.20
59301;DHT22;45073;52.740;6.784;2022-07-17T15:14:59;26.10;53.90
59301;DHT22;45073;52.740;6.784;2022-07-17T15:17:25;26.30;54.80
59301;DHT22;45073;52.740;6.784;2022-07-17T15:19:50;26.30;56.40
59301;DHT22;45073;52.740;6.784;2022-07-17T15:22:17;26.40;57.10
59301;DHT22;45073;52.740;6.784;2022-07-17T15:24:43;26.60;58.00
59301;DHT22;45073;52.740;6.784;2022-07-17T15:27:08;26.70;57.90
59301;DHT22;45073;52.740;6.784;2022-07-17T15:29:34;26.70;57.20
59301;DHT22;45073;52.740;6.784;2022-07-17T15:32:00;26.80;56.60
59301;DHT22;45073;52.740;6.784;2022-07-17T15:34:26;26.80;55.90